sensor_id;sensor_type;location;lat;lon;timestamp;P1;durP1;ratioP1;P2;durP2;ratioP2
10100;SDS011;5090;51.258;4.436;2023-05-10T00:01:11;29.27;;;18.93;;
10100;SDS011;5090;51.258;4.436;2023-05-10T00:03:40;31.97;;;19.90;;
10100;SDS011;5090;51.258;4.436;2023-05-10T00:06:08;30.27;;;19.27;;
10100;SDS011;5090;51.258;4.436;2023-05-10T00:08:36;31.87;;;19.43;;
10100;SDS011;5090;51.258;4.436;2023-05-10T00:11:05;36.47;;;20.13;;
10100;SDS011;5090;51.258;4.436;2023-05-10T00:13:33;30.63;;;19.10;;
10100;SDS011;5090;51.258;4.436;2023-05-10T00:16:01;29.33;;;18.53;;
10100;SDS011;5090;51.258;4.436;2023-05-10T00:18:30;31.77;;;19.53;;
10100;SDS011;5090;51.258;4.436;2023-05-10T00:20:58;32.83;;;19.67;;
10100;SDS011;5090;51.258;4.436;2023-05-10T00:23:27;33.50;;;18.20;;
10100;SDS011;5090;51.258;4.436;2023-05-10T00:25:55;32.50;;;18.23;;
10100;SDS011;5090;51.258;4.436;2023-05-10T00:28:23;28.57;;;16.80;;
10100;SDS011;5090;51.258;4.436;2023-05-10T00:30:51;33.17;;;17.60;;
10100;SDS011;5090;51.258;4.436;2023-05-10T00:33:20;32.33;;;17.27;;
10100;SDS011;5090;51.258;4.436;2023-05-10T00:35:48;32.63;;;18.37;;
10100;SDS011;5090;51.258;4.436;2023-05-10T00:38:16;30.60;;;17.93;;
10100;SDS011;5090;51.258;4.436;2023-05-10T00:40:45;33.47;;;18.47;;
10100;SDS011;5090;51.258;4.436;2023-05-10T00:43:13;33.30;;;18.30;;
10100;SDS011;5090;51.258;4.436;2023-05-10T00:45:41;34.20;;;19.07;;
10100;SDS011;5090;51.258;4.436;2023-05-10T00:48:09;30.73;;;19.07;;
10100;SDS011;5090;51.258;4.436;2023-05-10T00:50:38;35.27;;;19.90;;
10100;SDS011;5090;51.258;4.436;2023-05-10T00:53:06;30.73;;;18.83;;
10100;SDS011;5090;51.258;4.436;2023-05-10T00:55:34;39.63;;;20.10;;
10100;SDS011;5090;51.258;4.436;2023-05-10T00:58:03;38.73;;;20.43;;
10100;SDS011;5090;51.258;4.436;2023-05-10T01:00:32;37.10;;;19.93;;
10100;SDS011;5090;51.258;4.436;2023-05-10T01:03:00;35.63;;;20.00;;
10100;SDS011;5090;51.258;4.436;2023-05-10T01:05:28;39.10;;;19.53;;
10100;SDS011;5090;51.258;4.436;2023-05-10T01:07:56;33.17;;;20.07;;
10100;SDS011;5090;51.258;4.436;2023-05-10T01:10:25;40.00;;;18.83;;
10100;SDS011;5090;51.258;4.436;2023-05-10T01:12:53;35.37;;;18.80;;
10100;SDS011;5090;51.258;4.436;2023-05-10T01:15:21;31.37;;;17.73;;
10100;SDS011;5090;51.258;4.436;2023-05-10T01:17:50;28.30;;;17.57;;
10100;SDS011;5090;51.258;4.436;2023-05-10T01:20:18;35.17;;;19.70;;
10100;SDS011;5090;51.258;4.436;2023-05-10T01:25:31;37.80;;;22.23;;
10100;SDS011;5090;51.258;4.436;2023-05-10T01:28:07;36.93;;;21.63;;
10100;SDS011;5090;51.258;4.436;2023-05-10T01:33:18;37.90;;;23.63;;
10100;SDS011;5090;51.258;4.436;2023-05-10T01:35:47;43.47;;;24.13;;
10100;SDS011;5090;51.258;4.436;2023-05-10T01:40:55;46.93;;;25.20;;
10100;SDS011;5090;51.258;4.436;2023-05-10T01:43:21;48.20;;;25.30;;
10100;SDS011;5090;51.258;4.436;2023-05-10T01:45:51;50.83;;;25.27;;
10100;SDS011;5090;51.258;4.436;2023-05-10T01:48:18;49.30;;;26.40;;
10100;SDS011;5090;51.258;4.436;2023-05-10T01:50:46;48.63;;;24.60;;
10100;SDS011;5090;51.258;4.436;2023-05-10T01:53:17;49.67;;;25.13;;
10100;SDS011;5090;51.258;4.436;2023-05-10T01:55:45;46.57;;;23.70;;
10100;SDS011;5090;51.258;4.436;2023-05-10T01:58:13;40.60;;;23.17;;
10100;SDS011;5090;51.258;4.436;2023-05-10T02:00:40;40.07;;;22.97;;
10100;SDS011;5090;51.258;4.436;2023-05-10T02:03:08;39.23;;;21.53;;
10100;SDS011;5090;51.258;4.436;2023-05-10T02:05:36;35.50;;;21.67;;
10100;SDS011;5090;51.258;4.436;2023-05-10T02:08:05;44.37;;;24.70;;
10100;SDS011;5090;51.258;4.436;2023-05-10T02:10:34;75.60;;;46.37;;
10100;SDS011;5090;51.258;4.436;2023-05-10T02:13:02;125.63;;;78.77;;
10100;SDS011;5090;51.258;4.436;2023-05-10T02:15:30;144.00;;;91.87;;
10100;SDS011;5090;51.258;4.436;2023-05-10T02:17:59;158.40;;;96.60;;
10100;SDS011;5090;51.258;4.436;2023-05-10T02:20:26;180.53;;;109.47;;
10100;SDS011;5090;51.258;4.436;2023-05-10T02:22:56;152.97;;;98.87;;
10100;SDS011;5090;51.258;4.436;2023-05-10T02:25:24;91.40;;;54.03;;
10100;SDS011;5090;51.258;4.436;2023-05-10T02:27:54;58.17;;;37.10;;
10100;SDS011;5090;51.258;4.436;2023-05-10T02:30:25;56.13;;;31.90;;
10100;SDS011;5090;51.258;4.436;2023-05-10T02:32:58;60.60;;;32.17;;
10100;SDS011;5090;51.258;4.436;2023-05-10T02:35:26;116.93;;;47.43;;
10100;SDS011;5090;51.258;4.436;2023-05-10T02:37:55;141.87;;;51.43;;
10100;SDS011;5090;51.258;4.436;2023-05-10T02:40:23;134.07;;;55.53;;
10100;SDS011;5090;51.258;4.436;2023-05-10T02:42:52;154.17;;;55.17;;
10100;SDS011;5090;51.258;4.436;2023-05-10T02:45:20;130.27;;;53.77;;
10100;SDS011;5090;51.258;4.436;2023-05-10T02:47:51;127.07;;;54.87;;
10100;SDS011;5090;51.258;4.436;2023-05-10T02:50:19;131.60;;;53.93;;
10100;SDS011;5090;51.258;4.436;2023-05-10T02:52:49;120.33;;;49.90;;
10100;SDS011;5090;51.258;4.436;2023-05-10T02:55:16;113.23;;;48.20;;
10100;SDS011;5090;51.258;4.436;2023-05-10T02:57:47;95.37;;;42.47;;
10100;SDS011;5090;51.258;4.436;2023-05-10T03:00:13;78.23;;;37.97;;
10100;SDS011;5090;51.258;4.436;2023-05-10T03:02:41;66.70;;;31.53;;
10100;SDS011;5090;51.258;4.436;2023-05-10T03:05:10;58.97;;;27.73;;
10100;SDS011;5090;51.258;4.436;2023-05-10T03:07:40;53.83;;;27.60;;
10100;SDS011;5090;51.258;4.436;2023-05-10T03:10:08;51.83;;;28.27;;
10100;SDS011;5090;51.258;4.436;2023-05-10T03:15:33;54.00;;;26.60;;
10100;SDS011;5090;51.258;4.436;2023-05-10T03:18:04;57.77;;;27.57;;
10100;SDS011;5090;51.258;4.436;2023-05-10T03:20:32;55.23;;;28.67;;
10100;SDS011;5090;51.258;4.436;2023-05-10T03:23:00;54.77;;;26.20;;
10100;SDS011;5090;51.258;4.436;2023-05-10T03:25:28;49.87;;;26.07;;
10100;SDS011;5090;51.258;4.436;2023-05-10T03:27:56;44.83;;;23.50;;
10100;SDS011;5090;51.258;4.436;2023-05-10T03:30:24;32.83;;;19.87;;
10100;SDS011;5090;51.258;4.436;2023-05-10T03:32:54;44.40;;;22.00;;
10100;SDS011;5090;51.258;4.436;2023-05-10T03:35:22;43.40;;;23.37;;
10100;SDS011;5090;51.258;4.436;2023-05-10T03:37:50;43.83;;;23.50;;
10100;SDS011;5090;51.258;4.436;2023-05-10T03:40:19;48.33;;;23.43;;
10100;SDS011;5090;51.258;4.436;2023-05-10T03:42:47;44.80;;;24.47;;
10100;SDS011;5090;51.258;4.436;2023-05-10T03:45:15;48.10;;;23.87;;
10100;SDS011;5090;51.258;4.436;2023-05-10T03:47:43;48.50;;;25.13;;
10100;SDS011;5090;51.258;4.436;2023-05-10T03:50:12;49.30;;;24.27;;
10100;SDS011;5090;51.258;4.436;2023-05-10T03:52:40;49.03;;;24.57;;
10100;SDS011;5090;51.258;4.436;2023-05-10T03:55:08;43.53;;;24.20;;
10100;SDS011;5090;51.258;4.436;2023-05-10T03:57:37;44.77;;;25.77;;
10100;SDS011;5090;51.258;4.436;2023-05-10T04:00:05;53.47;;;26.13;;
10100;SDS011;5090;51.258;4.436;2023-05-10T04:02:34;46.77;;;25.23;;
10100;SDS011;5090;51.258;4.436;2023-05-10T04:05:02;42.50;;;23.30;;
10100;SDS011;5090;51.258;4.436;2023-05-10T04:07:30;49.70;;;24.30;;
10100;SDS011;5090;51.258;4.436;2023-05-10T04:09:58;50.43;;;25.20;;
10100;SDS011;5090;51.258;4.436;2023-05-10T04:12:27;45.67;;;23.70;;
10100;SDS011;5090;51.258;4.436;2023-05-10T04:14:55;47.20;;;24.30;;
10100;SDS011;5090;51.258;4.436;2023-05-10T04:17:24;44.47;;;23.63;;
10100;SDS011;5090;51.258;4.436;2023-05-10T04:19:52;47.60;;;25.00;;
10100;SDS011;5090;51.258;4.436;2023-05-10T04:22:20;48.10;;;24.43;;
10100;SDS011;5090;51.258;4.436;2023-05-10T04:24:49;50.93;;;23.27;;
10100;SDS011;5090;51.258;4.436;2023-05-10T04:27:17;44.90;;;23.80;;
10100;SDS011;5090;51.258;4.436;2023-05-10T04:29:45;50.47;;;24.10;;
10100;SDS011;5090;51.258;4.436;2023-05-10T04:32:13;49.93;;;23.50;;
10100;SDS011;5090;51.258;4.436;2023-05-10T04:34:42;43.47;;;23.13;;
10100;SDS011;5090;51.258;4.436;2023-05-10T04:37:10;45.73;;;23.77;;
10100;SDS011;5090;51.258;4.436;2023-05-10T04:39:38;50.20;;;24.23;;
10100;SDS011;5090;51.258;4.436;2023-05-10T04:42:07;42.03;;;23.40;;
10100;SDS011;5090;51.258;4.436;2023-05-10T04:44:35;40.20;;;21.47;;
10100;SDS011;5090;51.258;4.436;2023-05-10T04:47:03;37.33;;;19.30;;
10100;SDS011;5090;51.258;4.436;2023-05-10T04:49:32;24.43;;;14.70;;
10100;SDS011;5090;51.258;4.436;2023-05-10T04:52:00;24.07;;;14.50;;
10100;SDS011;5090;51.258;4.436;2023-05-10T04:54:28;27.17;;;16.40;;
10100;SDS011;5090;51.258;4.436;2023-05-10T04:56:57;24.97;;;16.07;;
10100;SDS011;5090;51.258;4.436;2023-05-10T04:59:25;34.77;;;16.93;;
10100;SDS011;5090;51.258;4.436;2023-05-10T05:01:53;30.83;;;17.70;;
10100;SDS011;5090;51.258;4.436;2023-05-10T05:04:22;27.23;;;17.47;;
10100;SDS011;5090;51.258;4.436;2023-05-10T05:06:51;31.93;;;18.43;;
10100;SDS011;5090;51.258;4.436;2023-05-10T05:09:19;33.63;;;18.20;;
10100;SDS011;5090;51.258;4.436;2023-05-10T05:11:47;28.07;;;18.87;;
10100;SDS011;5090;51.258;4.436;2023-05-10T05:14:15;31.97;;;19.17;;
10100;SDS011;5090;51.258;4.436;2023-05-10T05:16:43;35.50;;;20.60;;
10100;SDS011;5090;51.258;4.436;2023-05-10T05:19:12;27.47;;;17.63;;
10100;SDS011;5090;51.258;4.436;2023-05-10T05:21:40;23.37;;;15.83;;
10100;SDS011;5090;51.258;4.436;2023-05-10T05:24:09;23.77;;;15.10;;
10100;SDS011;5090;51.258;4.436;2023-05-10T05:26:37;19.03;;;13.40;;
10100;SDS011;5090;51.258;4.436;2023-05-10T05:29:06;21.87;;;11.87;;
10100;SDS011;5090;51.258;4.436;2023-05-10T05:31:34;19.87;;;11.80;;
10100;SDS011;5090;51.258;4.436;2023-05-10T05:34:02;19.07;;;11.60;;
10100;SDS011;5090;51.258;4.436;2023-05-10T05:36:35;18.13;;;12.40;;
10100;SDS011;5090;51.258;4.436;2023-05-10T05:39:03;24.63;;;15.33;;
10100;SDS011;5090;51.258;4.436;2023-05-10T05:41:31;26.23;;;16.10;;
10100;SDS011;5090;51.258;4.436;2023-05-10T05:43:59;22.07;;;15.60;;
10100;SDS011;5090;51.258;4.436;2023-05-10T05:46:33;24.10;;;16.63;;
10100;SDS011;5090;51.258;4.436;2023-05-10T05:49:02;27.03;;;17.00;;
10100;SDS011;5090;51.258;4.436;2023-05-10T05:51:31;27.57;;;17.43;;
10100;SDS011;5090;51.258;4.436;2023-05-10T05:53:59;26.67;;;17.37;;
10100;SDS011;5090;51.258;4.436;2023-05-10T05:56:27;24.83;;;17.33;;
10100;SDS011;5090;51.258;4.436;2023-05-10T05:58:56;26.67;;;18.33;;
10100;SDS011;5090;51.258;4.436;2023-05-10T06:01:25;27.03;;;19.00;;
10100;SDS011;5090;51.258;4.436;2023-05-10T06:03:53;26.03;;;18.83;;
10100;SDS011;5090;51.258;4.436;2023-05-10T06:06:22;31.20;;;19.37;;
10100;SDS011;5090;51.258;4.436;2023-05-10T06:08:50;29.73;;;19.80;;
10100;SDS011;5090;51.258;4.436;2023-05-10T06:11:19;30.07;;;19.33;;
10100;SDS011;5090;51.258;4.436;2023-05-10T06:13:47;28.60;;;20.27;;
10100;SDS011;5090;51.258;4.436;2023-05-10T06:16:15;32.53;;;20.17;;
10100;SDS011;5090;51.258;4.436;2023-05-10T06:18:43;28.33;;;20.03;;
10100;SDS011;5090;51.258;4.436;2023-05-10T06:21:12;32.27;;;19.57;;
10100;SDS011;5090;51.258;4.436;2023-05-10T06:23:44;26.00;;;18.63;;
10100;SDS011;5090;51.258;4.436;2023-05-10T06:26:12;31.43;;;18.87;;
10100;SDS011;5090;51.258;4.436;2023-05-10T06:28:42;24.27;;;17.73;;
10100;SDS011;5090;51.258;4.436;2023-05-10T06:31:10;28.30;;;18.30;;
10100;SDS011;5090;51.258;4.436;2023-05-10T06:33:38;27.27;;;17.80;;
10100;SDS011;5090;51.258;4.436;2023-05-10T06:36:07;27.47;;;18.57;;
10100;SDS011;5090;51.258;4.436;2023-05-10T06:38:35;25.73;;;17.57;;
10100;SDS011;5090;51.258;4.436;2023-05-10T06:41:03;30.03;;;18.37;;
10100;SDS011;5090;51.258;4.436;2023-05-10T06:43:32;28.87;;;17.97;;
10100;SDS011;5090;51.258;4.436;2023-05-10T06:46:07;27.53;;;17.30;;
10100;SDS011;5090;51.258;4.436;2023-05-10T06:48:36;26.03;;;16.07;;
10100;SDS011;5090;51.258;4.436;2023-05-10T06:51:05;24.90;;;17.03;;
10100;SDS011;5090;51.258;4.436;2023-05-10T06:53:33;29.00;;;16.83;;
10100;SDS011;5090;51.258;4.436;2023-05-10T06:56:01;25.00;;;16.73;;
10100;SDS011;5090;51.258;4.436;2023-05-10T06:58:30;23.60;;;16.07;;
10100;SDS011;5090;51.258;4.436;2023-05-10T07:01:01;24.63;;;16.60;;
10100;SDS011;5090;51.258;4.436;2023-05-10T07:03:29;24.47;;;15.67;;
10100;SDS011;5090;51.258;4.436;2023-05-10T07:11:50;20.13;;;14.57;;
10100;SDS011;5090;51.258;4.436;2023-05-10T07:14:18;21.30;;;14.67;;
10100;SDS011;5090;51.258;4.436;2023-05-10T07:19:38;16.57;;;12.30;;
10100;SDS011;5090;51.258;4.436;2023-05-10T07:22:06;18.93;;;13.20;;
10100;SDS011;5090;51.258;4.436;2023-05-10T07:24:34;14.63;;;12.13;;
10100;SDS011;5090;51.258;4.436;2023-05-10T07:27:03;17.77;;;13.17;;
10100;SDS011;5090;51.258;4.436;2023-05-10T07:29:32;14.97;;;11.87;;
10100;SDS011;5090;51.258;4.436;2023-05-10T07:32:01;16.30;;;11.97;;
10100;SDS011;5090;51.258;4.436;2023-05-10T07:34:29;14.00;;;11.20;;
10100;SDS011;5090;51.258;4.436;2023-05-10T07:36:58;18.20;;;12.07;;
10100;SDS011;5090;51.258;4.436;2023-05-10T07:39:26;15.20;;;12.00;;
10100;SDS011;5090;51.258;4.436;2023-05-10T07:41:54;17.80;;;12.33;;
10100;SDS011;5090;51.258;4.436;2023-05-10T07:44:22;17.07;;;11.63;;
10100;SDS011;5090;51.258;4.436;2023-05-10T07:46:51;15.60;;;10.77;;
10100;SDS011;5090;51.258;4.436;2023-05-10T07:49:19;14.30;;;11.48;;
10100;SDS011;5090;51.258;4.436;2023-05-10T07:51:49;12.27;;;10.52;;
10100;SDS011;5090;51.258;4.436;2023-05-10T07:54:18;11.80;;;9.80;;
10100;SDS011;5090;51.258;4.436;2023-05-10T07:56:46;13.43;;;9.98;;
10100;SDS011;5090;51.258;4.436;2023-05-10T07:59:15;10.70;;;8.85;;
10100;SDS011;5090;51.258;4.436;2023-05-10T08:01:46;8.40;;;6.90;;
10100;SDS011;5090;51.258;4.436;2023-05-10T08:04:14;8.20;;;6.57;;
10100;SDS011;5090;51.258;4.436;2023-05-10T08:12:18;6.18;;;5.53;;
10100;SDS011;5090;51.258;4.436;2023-05-10T08:14:48;8.68;;;5.90;;
10100;SDS011;5090;51.258;4.436;2023-05-10T08:17:16;7.75;;;6.18;;
10100;SDS011;5090;51.258;4.436;2023-05-10T08:19:48;7.15;;;5.82;;
10100;SDS011;5090;51.258;4.436;2023-05-10T08:22:17;7.07;;;6.10;;
10100;SDS011;5090;51.258;4.436;2023-05-10T08:24:46;7.05;;;5.90;;
10100;SDS011;5090;51.258;4.436;2023-05-10T08:27:14;8.07;;;6.40;;
10100;SDS011;5090;51.258;4.436;2023-05-10T08:29:42;11.73;;;6.00;;
10100;SDS011;5090;51.258;4.436;2023-05-10T08:32:12;7.80;;;6.37;;
10100;SDS011;5090;51.258;4.436;2023-05-10T08:34:42;6.75;;;5.45;;
10100;SDS011;5090;51.258;4.436;2023-05-10T08:37:10;8.40;;;6.43;;
10100;SDS011;5090;51.258;4.436;2023-05-10T08:39:38;8.25;;;6.78;;
10100;SDS011;5090;51.258;4.436;2023-05-10T08:42:06;7.55;;;6.78;;
10100;SDS011;5090;51.258;4.436;2023-05-10T08:44:36;6.93;;;4.53;;
10100;SDS011;5090;51.258;4.436;2023-05-10T08:47:05;6.00;;;3.97;;
10100;SDS011;5090;51.258;4.436;2023-05-10T08:49:34;5.00;;;4.28;;
10100;SDS011;5090;51.258;4.436;2023-05-10T08:52:03;5.97;;;4.50;;
10100;SDS011;5090;51.258;4.436;2023-05-10T08:54:31;5.87;;;4.35;;
10100;SDS011;5090;51.258;4.436;2023-05-10T08:56:59;9.38;;;4.00;;
10100;SDS011;5090;51.258;4.436;2023-05-10T08:59:28;4.00;;;3.60;;
10100;SDS011;5090;51.258;4.436;2023-05-10T09:01:57;4.70;;;3.83;;
10100;SDS011;5090;51.258;4.436;2023-05-10T09:04:25;6.32;;;3.60;;
10100;SDS011;5090;51.258;4.436;2023-05-10T09:06:54;5.43;;;3.50;;
10100;SDS011;5090;51.258;4.436;2023-05-10T09:09:22;4.50;;;3.28;;
10100;SDS011;5090;51.258;4.436;2023-05-10T09:11:51;3.62;;;3.00;;
10100;SDS011;5090;51.258;4.436;2023-05-10T09:14:19;6.25;;;3.92;;
10100;SDS011;5090;51.258;4.436;2023-05-10T09:16:47;5.37;;;3.80;;
10100;SDS011;5090;51.258;4.436;2023-05-10T09:19:16;7.10;;;4.45;;
10100;SDS011;5090;51.258;4.436;2023-05-10T09:21:45;6.22;;;5.03;;
10100;SDS011;5090;51.258;4.436;2023-05-10T09:24:13;5.97;;;5.37;;
10100;SDS011;5090;51.258;4.436;2023-05-10T09:26:49;6.40;;;5.32;;
10100;SDS011;5090;51.258;4.436;2023-05-10T09:29:17;5.03;;;4.47;;
10100;SDS011;5090;51.258;4.436;2023-05-10T09:31:47;5.35;;;4.78;;
10100;SDS011;5090;51.258;4.436;2023-05-10T09:34:18;6.93;;;6.22;;
10100;SDS011;5090;51.258;4.436;2023-05-10T09:36:52;8.43;;;6.07;;
10100;SDS011;5090;51.258;4.436;2023-05-10T09:39:20;9.52;;;5.25;;
10100;SDS011;5090;51.258;4.436;2023-05-10T09:41:49;8.45;;;5.10;;
10100;SDS011;5090;51.258;4.436;2023-05-10T09:44:18;4.78;;;3.78;;
10100;SDS011;5090;51.258;4.436;2023-05-10T09:46:49;5.70;;;4.55;;
10100;SDS011;5090;51.258;4.436;2023-05-10T09:49:18;4.75;;;4.07;;
10100;SDS011;5090;51.258;4.436;2023-05-10T09:51:47;6.57;;;4.95;;
10100;SDS011;5090;51.258;4.436;2023-05-10T09:54:16;7.12;;;5.55;;
10100;SDS011;5090;51.258;4.436;2023-05-10T09:56:44;9.10;;;6.65;;
10100;SDS011;5090;51.258;4.436;2023-05-10T09:59:12;12.80;;;9.65;;
10100;SDS011;5090;51.258;4.436;2023-05-10T10:01:57;15.07;;;10.30;;
10100;SDS011;5090;51.258;4.436;2023-05-10T10:04:25;21.42;;;12.80;;
10100;SDS011;5090;51.258;4.436;2023-05-10T10:06:58;20.02;;;13.70;;
10100;SDS011;5090;51.258;4.436;2023-05-10T10:09:26;25.35;;;15.55;;
10100;SDS011;5090;51.258;4.436;2023-05-10T10:11:55;24.15;;;14.82;;
10100;SDS011;5090;51.258;4.436;2023-05-10T10:14:24;25.92;;;15.23;;
10100;SDS011;5090;51.258;4.436;2023-05-10T10:16:52;24.67;;;16.15;;
10100;SDS011;5090;51.258;4.436;2023-05-10T10:19:20;25.33;;;15.43;;
10100;SDS011;5090;51.258;4.436;2023-05-10T10:21:49;24.00;;;15.10;;
10100;SDS011;5090;51.258;4.436;2023-05-10T10:24:17;25.02;;;15.73;;
10100;SDS011;5090;51.258;4.436;2023-05-10T10:26:46;26.55;;;16.45;;
10100;SDS011;5090;51.258;4.436;2023-05-10T10:31:53;30.13;;;18.40;;
10100;SDS011;5090;51.258;4.436;2023-05-10T10:34:25;29.60;;;17.83;;
10100;SDS011;5090;51.258;4.436;2023-05-10T10:36:52;30.08;;;17.70;;
10100;SDS011;5090;51.258;4.436;2023-05-10T10:39:20;24.70;;;17.20;;
10100;SDS011;5090;51.258;4.436;2023-05-10T10:41:50;27.20;;;16.12;;
10100;SDS011;5090;51.258;4.436;2023-05-10T10:44:37;29.63;;;17.65;;
10100;SDS011;5090;51.258;4.436;2023-05-10T10:47:06;30.42;;;18.98;;
10100;SDS011;5090;51.258;4.436;2023-05-10T10:49:38;26.25;;;15.95;;
10100;SDS011;5090;51.258;4.436;2023-05-10T10:54:40;21.60;;;12.35;;
10100;SDS011;5090;51.258;4.436;2023-05-10T10:57:11;21.95;;;11.65;;
10100;SDS011;5090;51.258;4.436;2023-05-10T10:59:41;17.85;;;11.48;;
10100;SDS011;5090;51.258;4.436;2023-05-10T11:02:11;20.02;;;11.25;;
10100;SDS011;5090;51.258;4.436;2023-05-10T11:04:41;18.85;;;11.60;;
10100;SDS011;5090;51.258;4.436;2023-05-10T11:07:16;22.37;;;11.98;;
10100;SDS011;5090;51.258;4.436;2023-05-10T11:09:45;20.70;;;12.70;;
10100;SDS011;5090;51.258;4.436;2023-05-10T11:12:13;20.58;;;12.40;;
10100;SDS011;5090;51.258;4.436;2023-05-10T11:14:42;19.12;;;11.50;;
10100;SDS011;5090;51.258;4.436;2023-05-10T11:20:01;18.30;;;11.93;;
10100;SDS011;5090;51.258;4.436;2023-05-10T11:22:16;18.17;;;11.95;;
10100;SDS011;5090;51.258;4.436;2023-05-10T11:24:56;21.20;;;11.50;;
10100;SDS011;5090;51.258;4.436;2023-05-10T11:27:13;20.87;;;11.23;;
10100;SDS011;5090;51.258;4.436;2023-05-10T11:29:42;19.47;;;11.57;;
10100;SDS011;5090;51.258;4.436;2023-05-10T11:32:10;17.03;;;11.23;;
10100;SDS011;5090;51.258;4.436;2023-05-10T11:34:38;16.55;;;11.57;;
10100;SDS011;5090;51.258;4.436;2023-05-10T11:37:06;20.50;;;12.03;;
10100;SDS011;5090;51.258;4.436;2023-05-10T11:39:35;19.62;;;12.32;;
10100;SDS011;5090;51.258;4.436;2023-05-10T11:42:03;21.23;;;11.70;;
10100;SDS011;5090;51.258;4.436;2023-05-10T11:44:31;18.50;;;11.70;;
10100;SDS011;5090;51.258;4.436;2023-05-10T11:47:00;19.85;;;11.75;;
10100;SDS011;5090;51.258;4.436;2023-05-10T11:49:29;16.20;;;11.30;;
10100;SDS011;5090;51.258;4.436;2023-05-10T11:52:04;16.33;;;10.85;;
10100;SDS011;5090;51.258;4.436;2023-05-10T11:54:31;15.75;;;11.10;;
10100;SDS011;5090;51.258;4.436;2023-05-10T11:57:00;16.67;;;11.73;;
10100;SDS011;5090;51.258;4.436;2023-05-10T11:59:29;16.35;;;11.23;;
10100;SDS011;5090;51.258;4.436;2023-05-10T12:01:58;16.80;;;11.52;;
10100;SDS011;5090;51.258;4.436;2023-05-10T12:04:27;19.08;;;11.95;;
10100;SDS011;5090;51.258;4.436;2023-05-10T12:06:55;14.65;;;10.43;;
10100;SDS011;5090;51.258;4.436;2023-05-10T12:09:23;18.33;;;11.77;;
10100;SDS011;5090;51.258;4.436;2023-05-10T12:11:55;16.10;;;11.23;;
10100;SDS011;5090;51.258;4.436;2023-05-10T12:14:21;17.60;;;11.17;;
10100;SDS011;5090;51.258;4.436;2023-05-10T12:16:50;23.23;;;12.17;;
10100;SDS011;5090;51.258;4.436;2023-05-10T12:19:19;19.20;;;11.63;;
10100;SDS011;5090;51.258;4.436;2023-05-10T12:21:53;19.07;;;11.87;;
10100;SDS011;5090;51.258;4.436;2023-05-10T12:24:26;19.37;;;11.67;;
10100;SDS011;5090;51.258;4.436;2023-05-10T12:26:54;18.20;;;12.20;;
10100;SDS011;5090;51.258;4.436;2023-05-10T12:29:30;19.63;;;12.60;;
10100;SDS011;5090;51.258;4.436;2023-05-10T12:31:58;20.70;;;13.10;;
10100;SDS011;5090;51.258;4.436;2023-05-10T12:34:31;26.50;;;13.20;;
10100;SDS011;5090;51.258;4.436;2023-05-10T12:36:59;19.87;;;13.20;;
10100;SDS011;5090;51.258;4.436;2023-05-10T12:44:48;17.30;;;12.10;;
10100;SDS011;5090;51.258;4.436;2023-05-10T12:47:17;19.27;;;12.00;;
10100;SDS011;5090;51.258;4.436;2023-05-10T12:49:45;15.82;;;11.10;;
10100;SDS011;5090;51.258;4.436;2023-05-10T12:52:13;15.50;;;10.77;;
10100;SDS011;5090;51.258;4.436;2023-05-10T12:54:43;17.45;;;11.50;;
10100;SDS011;5090;51.258;4.436;2023-05-10T12:57:11;13.83;;;10.80;;
10100;SDS011;5090;51.258;4.436;2023-05-10T12:59:39;17.10;;;10.87;;
10100;SDS011;5090;51.258;4.436;2023-05-10T13:02:08;14.65;;;10.57;;
10100;SDS011;5090;51.258;4.436;2023-05-10T13:04:36;17.13;;;11.47;;
10100;SDS011;5090;51.258;4.436;2023-05-10T13:07:05;14.57;;;11.63;;
10100;SDS011;5090;51.258;4.436;2023-05-10T13:09:35;16.20;;;11.60;;
10100;SDS011;5090;51.258;4.436;2023-05-10T13:12:05;17.80;;;12.77;;
10100;SDS011;5090;51.258;4.436;2023-05-10T13:14:33;19.60;;;11.90;;
10100;SDS011;5090;51.258;4.436;2023-05-10T13:17:03;14.80;;;12.63;;
10100;SDS011;5090;51.258;4.436;2023-05-10T13:19:37;23.40;;;13.07;;
10100;SDS011;5090;51.258;4.436;2023-05-10T13:22:05;22.50;;;13.67;;
10100;SDS011;5090;51.258;4.436;2023-05-10T13:24:35;24.93;;;15.43;;
10100;SDS011;5090;51.258;4.436;2023-05-10T13:27:03;23.87;;;15.70;;
10100;SDS011;5090;51.258;4.436;2023-05-10T13:29:31;25.30;;;15.83;;
10100;SDS011;5090;51.258;4.436;2023-05-10T13:31:59;23.23;;;15.97;;
10100;SDS011;5090;51.258;4.436;2023-05-10T13:34:28;24.30;;;15.47;;
10100;SDS011;5090;51.258;4.436;2023-05-10T13:36:58;24.13;;;16.97;;
10100;SDS011;5090;51.258;4.436;2023-05-10T13:39:26;26.13;;;16.43;;
10100;SDS011;5090;51.258;4.436;2023-05-10T13:41:55;29.23;;;16.73;;
10100;SDS011;5090;51.258;4.436;2023-05-10T13:44:24;24.10;;;16.30;;
10100;SDS011;5090;51.258;4.436;2023-05-10T13:46:53;30.27;;;19.33;;
10100;SDS011;5090;51.258;4.436;2023-05-10T13:49:24;27.60;;;17.63;;
10100;SDS011;5090;51.258;4.436;2023-05-10T13:51:53;26.33;;;18.47;;
10100;SDS011;5090;51.258;4.436;2023-05-10T13:54:23;25.10;;;17.03;;
10100;SDS011;5090;51.258;4.436;2023-05-10T13:56:51;28.37;;;19.17;;
10100;SDS011;5090;51.258;4.436;2023-05-10T13:59:20;24.67;;;16.87;;
10100;SDS011;5090;51.258;4.436;2023-05-10T14:01:48;32.17;;;18.83;;
10100;SDS011;5090;51.258;4.436;2023-05-10T14:04:17;28.97;;;19.77;;
10100;SDS011;5090;51.258;4.436;2023-05-10T14:06:45;31.40;;;20.17;;
10100;SDS011;5090;51.258;4.436;2023-05-10T14:09:16;34.97;;;20.97;;
10100;SDS011;5090;51.258;4.436;2023-05-10T14:11:47;29.73;;;19.57;;
10100;SDS011;5090;51.258;4.436;2023-05-10T14:14:16;26.67;;;17.23;;
10100;SDS011;5090;51.258;4.436;2023-05-10T14:16:44;30.60;;;17.17;;
10100;SDS011;5090;51.258;4.436;2023-05-10T14:19:12;32.43;;;19.93;;
10100;SDS011;5090;51.258;4.436;2023-05-10T14:21:41;44.30;;;27.37;;
10100;SDS011;5090;51.258;4.436;2023-05-10T14:24:10;48.70;;;29.53;;
10100;SDS011;5090;51.258;4.436;2023-05-10T14:26:39;48.10;;;31.20;;
10100;SDS011;5090;51.258;4.436;2023-05-10T14:29:09;45.70;;;29.67;;
10100;SDS011;5090;51.258;4.436;2023-05-10T14:31:39;44.80;;;27.87;;
10100;SDS011;5090;51.258;4.436;2023-05-10T14:34:09;47.37;;;28.00;;
10100;SDS011;5090;51.258;4.436;2023-05-10T14:36:37;45.00;;;29.27;;
10100;SDS011;5090;51.258;4.436;2023-05-10T14:39:05;47.57;;;30.77;;
10100;SDS011;5090;51.258;4.436;2023-05-10T14:41:34;53.27;;;32.20;;
10100;SDS011;5090;51.258;4.436;2023-05-10T14:44:03;52.93;;;32.07;;
10100;SDS011;5090;51.258;4.436;2023-05-10T14:46:31;54.60;;;35.30;;
10100;SDS011;5090;51.258;4.436;2023-05-10T14:49:00;49.33;;;29.10;;
10100;SDS011;5090;51.258;4.436;2023-05-10T14:51:28;38.07;;;23.70;;
10100;SDS011;5090;51.258;4.436;2023-05-10T14:53:57;26.87;;;17.87;;
10100;SDS011;5090;51.258;4.436;2023-05-10T14:56:26;26.52;;;16.10;;
10100;SDS011;5090;51.258;4.436;2023-05-10T14:58:55;13.73;;;10.23;;
10100;SDS011;5090;51.258;4.436;2023-05-10T15:01:23;9.90;;;8.20;;
10100;SDS011;5090;51.258;4.436;2023-05-10T15:03:51;15.50;;;7.60;;
10100;SDS011;5090;51.258;4.436;2023-05-10T15:06:23;13.77;;;6.53;;
10100;SDS011;5090;51.258;4.436;2023-05-10T15:08:49;10.37;;;5.90;;
10100;SDS011;5090;51.258;4.436;2023-05-10T15:11:18;10.03;;;5.90;;
10100;SDS011;5090;51.258;4.436;2023-05-10T15:13:45;9.80;;;6.00;;
10100;SDS011;5090;51.258;4.436;2023-05-10T15:16:14;9.47;;;5.13;;
10100;SDS011;5090;51.258;4.436;2023-05-10T15:18:42;12.57;;;6.63;;
10100;SDS011;5090;51.258;4.436;2023-05-10T15:21:11;11.47;;;5.90;;
10100;SDS011;5090;51.258;4.436;2023-05-10T15:23:39;14.83;;;7.23;;
10100;SDS011;5090;51.258;4.436;2023-05-10T15:26:07;14.17;;;8.80;;